sensor_id;sensor_type;location;lat;lon;timestamp;P1;durP1;ratioP1;P2;durP2;ratioP2
20423;SDS011;10371;49.042;8.002;2023-12-22T00:00:52;5.77;;;2.80;;
20423;SDS011;10371;49.042;8.002;2023-12-22T00:01:53;5.03;;;2.20;;
20423;SDS011;10371;49.042;8.002;2023-12-22T00:02:53;4.78;;;3.42;;
20423;SDS011;10371;49.042;8.002;2023-12-22T00:03:54;3.70;;;2.57;;
20423;SDS011;10371;49.042;8.002;2023-12-22T00:04:54;7.32;;;2.22;;
20423;SDS011;10371;49.042;8.002;2023-12-22T00:05:54;2.97;;;1.90;;
20423;SDS011;10371;49.042;8.002;2023-12-22T00:06:54;4.73;;;2.00;;
20423;SDS011;10371;49.042;8.002;2023-12-22T00:07:55;5.23;;;1.83;;
20423;SDS011;10371;49.042;8.002;2023-12-22T00:08:55;3.08;;;1.50;;
20423;SDS011;10371;49.042;8.002;2023-12-22T00:09:55;3.23;;;1.60;;
20423;SDS011;10371;49.042;8.002;2023-12-22T00:10:56;4.27;;;1.70;;
20423;SDS011;10371;49.042;8.002;2023-12-22T00:11:56;5.93;;;2.40;;
20423;SDS011;10371;49.042;8.002;2023-12-22T00:12:56;4.28;;;1.63;;
20423;SDS011;10371;49.042;8.002;2023-12-22T00:13:56;1.90;;;1.40;;
20423;SDS011;10371;49.042;8.002;2023-12-22T00:14:57;5.67;;;1.60;;
20423;SDS011;10371;49.042;8.002;2023-12-22T00:15:57;3.38;;;1.63;;
20423;SDS011;10371;49.042;8.002;2023-12-22T00:16:57;4.27;;;1.70;;
20423;SDS011;10371;49.042;8.002;2023-12-22T00:17:57;4.53;;;1.83;;
20423;SDS011;10371;49.042;8.002;2023-12-22T00:18:58;4.60;;;1.85;;
20423;SDS011;10371;49.042;8.002;2023-12-22T00:19:58;2.40;;;1.73;;
20423;SDS011;10371;49.042;8.002;2023-12-22T00:21:02;3.80;;;1.60;;
20423;SDS011;10371;49.042;8.002;2023-12-22T00:22:03;3.37;;;1.60;;
20423;SDS011;10371;49.042;8.002;2023-12-22T00:23:03;6.63;;;2.08;;
20423;SDS011;10371;49.042;8.002;2023-12-22T00:24:04;3.07;;;1.77;;
20423;SDS011;10371;49.042;8.002;2023-12-22T00:25:04;3.03;;;1.63;;
20423;SDS011;10371;49.042;8.002;2023-12-22T00:26:05;3.47;;;1.70;;
20423;SDS011;10371;49.042;8.002;2023-12-22T00:27:05;3.50;;;1.60;;
20423;SDS011;10371;49.042;8.002;2023-12-22T00:28:06;2.97;;;1.63;;
20423;SDS011;10371;49.042;8.002;2023-12-22T00:29:06;2.97;;;1.53;;
20423;SDS011;10371;49.042;8.002;2023-12-22T00:30:07;4.97;;;2.07;;
20423;SDS011;10371;49.042;8.002;2023-12-22T00:31:07;3.87;;;1.50;;
20423;SDS011;10371;49.042;8.002;2023-12-22T00:32:08;2.80;;;1.47;;
20423;SDS011;10371;49.042;8.002;2023-12-22T00:33:09;3.33;;;1.33;;
20423;SDS011;10371;49.042;8.002;2023-12-22T00:34:09;4.50;;;1.50;;
20423;SDS011;10371;49.042;8.002;2023-12-22T00:35:10;2.53;;;1.33;;
20423;SDS011;10371;49.042;8.002;2023-12-22T00:36:10;2.83;;;1.50;;
20423;SDS011;10371;49.042;8.002;2023-12-22T00:37:10;1.65;;;1.33;;
20423;SDS011;10371;49.042;8.002;2023-12-22T00:38:12;2.70;;;1.33;;
20423;SDS011;10371;49.042;8.002;2023-12-22T00:39:12;7.47;;;1.50;;
20423;SDS011;10371;49.042;8.002;2023-12-22T00:40:12;2.93;;;1.33;;
20423;SDS011;10371;49.042;8.002;2023-12-22T00:41:13;2.63;;;1.37;;
20423;SDS011;10371;49.042;8.002;2023-12-22T00:42:13;2.80;;;1.30;;
20423;SDS011;10371;49.042;8.002;2023-12-22T00:43:14;2.73;;;1.10;;
20423;SDS011;10371;49.042;8.002;2023-12-22T00:44:14;2.37;;;1.10;;
20423;SDS011;10371;49.042;8.002;2023-12-22T00:45:14;2.20;;;1.23;;
20423;SDS011;10371;49.042;8.002;2023-12-22T00:46:14;3.03;;;1.40;;
20423;SDS011;10371;49.042;8.002;2023-12-22T00:47:15;2.07;;;1.20;;
20423;SDS011;10371;49.042;8.002;2023-12-22T00:48:15;1.80;;;1.00;;
20423;SDS011;10371;49.042;8.002;2023-12-22T00:49:16;2.63;;;1.20;;
20423;SDS011;10371;49.042;8.002;2023-12-22T00:50:16;2.47;;;1.20;;
20423;SDS011;10371;49.042;8.002;2023-12-22T00:51:16;2.83;;;1.27;;
20423;SDS011;10371;49.042;8.002;2023-12-22T00:52:16;4.03;;;1.33;;
20423;SDS011;10371;49.042;8.002;2023-12-22T00:53:17;2.73;;;1.17;;
20423;SDS011;10371;49.042;8.002;2023-12-22T00:54:17;3.60;;;1.40;;
20423;SDS011;10371;49.042;8.002;2023-12-22T00:55:17;2.77;;;1.23;;
20423;SDS011;10371;49.042;8.002;2023-12-22T00:56:17;3.10;;;1.40;;
20423;SDS011;10371;49.042;8.002;2023-12-22T00:57:18;2.60;;;1.40;;
20423;SDS011;10371;49.042;8.002;2023-12-22T00:58:18;3.37;;;1.43;;
20423;SDS011;10371;49.042;8.002;2023-12-22T00:59:18;2.97;;;1.30;;
20423;SDS011;10371;49.042;8.002;2023-12-22T01:00:19;3.30;;;1.30;;
20423;SDS011;10371;49.042;8.002;2023-12-22T01:01:19;2.47;;;1.10;;
20423;SDS011;10371;49.042;8.002;2023-12-22T01:02:19;2.43;;;1.17;;
20423;SDS011;10371;49.042;8.002;2023-12-22T01:03:20;3.13;;;1.40;;
20423;SDS011;10371;49.042;8.002;2023-12-22T01:04:20;2.47;;;1.20;;
20423;SDS011;10371;49.042;8.002;2023-12-22T01:05:20;3.43;;;1.37;;
20423;SDS011;10371;49.042;8.002;2023-12-22T01:06:21;3.90;;;1.30;;
20423;SDS011;10371;49.042;8.002;2023-12-22T01:07:21;1.50;;;1.10;;
20423;SDS011;10371;49.042;8.002;2023-12-22T01:08:22;3.00;;;1.20;;
20423;SDS011;10371;49.042;8.002;2023-12-22T01:09:22;3.43;;;1.20;;
20423;SDS011;10371;49.042;8.002;2023-12-22T01:10:22;2.10;;;1.20;;
20423;SDS011;10371;49.042;8.002;2023-12-22T01:11:22;2.43;;;1.30;;
20423;SDS011;10371;49.042;8.002;2023-12-22T01:12:23;4.33;;;1.23;;
20423;SDS011;10371;49.042;8.002;2023-12-22T01:13:23;1.57;;;1.10;;
20423;SDS011;10371;49.042;8.002;2023-12-22T01:14:23;2.53;;;1.33;;
20423;SDS011;10371;49.042;8.002;2023-12-22T01:15:23;2.37;;;1.10;;
20423;SDS011;10371;49.042;8.002;2023-12-22T01:16:24;1.43;;;1.07;;
20423;SDS011;10371;49.042;8.002;2023-12-22T01:17:24;3.50;;;1.30;;
20423;SDS011;10371;49.042;8.002;2023-12-22T01:18:24;2.10;;;1.30;;
20423;SDS011;10371;49.042;8.002;2023-12-22T01:19:28;2.67;;;1.23;;
20423;SDS011;10371;49.042;8.002;2023-12-22T01:20:29;4.10;;;1.50;;
20423;SDS011;10371;49.042;8.002;2023-12-22T01:21:29;2.40;;;1.27;;
20423;SDS011;10371;49.042;8.002;2023-12-22T01:22:29;2.70;;;1.40;;
20423;SDS011;10371;49.042;8.002;2023-12-22T01:23:32;2.70;;;1.50;;
20423;SDS011;10371;49.042;8.002;2023-12-22T01:24:32;2.83;;;1.27;;
20423;SDS011;10371;49.042;8.002;2023-12-22T01:25:32;3.40;;;1.43;;
20423;SDS011;10371;49.042;8.002;2023-12-22T01:26:32;3.73;;;1.23;;
20423;SDS011;10371;49.042;8.002;2023-12-22T01:27:33;2.23;;;1.37;;
20423;SDS011;10371;49.042;8.002;2023-12-22T01:28:34;4.40;;;1.90;;
20423;SDS011;10371;49.042;8.002;2023-12-22T01:29:34;3.03;;;1.47;;
20423;SDS011;10371;49.042;8.002;2023-12-22T01:30:35;2.97;;;1.43;;
20423;SDS011;10371;49.042;8.002;2023-12-22T01:31:35;2.03;;;1.10;;
20423;SDS011;10371;49.042;8.002;2023-12-22T01:32:35;5.60;;;2.00;;
20423;SDS011;10371;49.042;8.002;2023-12-22T01:33:36;4.13;;;1.57;;
20423;SDS011;10371;49.042;8.002;2023-12-22T01:34:37;2.73;;;1.40;;
20423;SDS011;10371;49.042;8.002;2023-12-22T01:35:37;3.87;;;1.70;;
20423;SDS011;10371;49.042;8.002;2023-12-22T01:36:37;2.50;;;1.60;;
20423;SDS011;10371;49.042;8.002;2023-12-22T01:37:37;2.40;;;1.50;;
20423;SDS011;10371;49.042;8.002;2023-12-22T01:38:38;4.13;;;1.73;;
20423;SDS011;10371;49.042;8.002;2023-12-22T01:39:38;4.77;;;1.87;;
20423;SDS011;10371;49.042;8.002;2023-12-22T01:40:38;5.53;;;1.67;;
20423;SDS011;10371;49.042;8.002;2023-12-22T01:41:39;3.43;;;1.50;;
20423;SDS011;10371;49.042;8.002;2023-12-22T01:42:39;3.93;;;1.50;;
20423;SDS011;10371;49.042;8.002;2023-12-22T01:43:40;4.00;;;1.40;;
20423;SDS011;10371;49.042;8.002;2023-12-22T01:44:40;2.90;;;1.67;;
20423;SDS011;10371;49.042;8.002;2023-12-22T01:45:40;2.90;;;1.30;;
20423;SDS011;10371;49.042;8.002;2023-12-22T01:46:43;3.27;;;1.87;;
20423;SDS011;10371;49.042;8.002;2023-12-22T01:47:44;3.57;;;1.57;;
20423;SDS011;10371;49.042;8.002;2023-12-22T01:48:46;3.57;;;1.60;;
20423;SDS011;10371;49.042;8.002;2023-12-22T01:49:47;4.23;;;1.60;;
20423;SDS011;10371;49.042;8.002;2023-12-22T01:50:48;4.27;;;2.00;;
20423;SDS011;10371;49.042;8.002;2023-12-22T01:51:50;5.67;;;1.90;;
20423;SDS011;10371;49.042;8.002;2023-12-22T01:52:52;4.97;;;1.70;;
20423;SDS011;10371;49.042;8.002;2023-12-22T01:53:53;2.67;;;1.60;;
20423;SDS011;10371;49.042;8.002;2023-12-22T01:54:53;3.37;;;1.50;;
20423;SDS011;10371;49.042;8.002;2023-12-22T01:55:55;3.53;;;1.73;;
20423;SDS011;10371;49.042;8.002;2023-12-22T01:56:56;3.83;;;1.83;;
20423;SDS011;10371;49.042;8.002;2023-12-22T01:57:57;2.63;;;1.57;;
20423;SDS011;10371;49.042;8.002;2023-12-22T01:58:59;4.17;;;1.90;;
20423;SDS011;10371;49.042;8.002;2023-12-22T02:00:01;5.27;;;1.73;;
20423;SDS011;10371;49.042;8.002;2023-12-22T02:01:03;4.00;;;1.87;;
20423;SDS011;10371;49.042;8.002;2023-12-22T02:02:03;3.87;;;1.73;;
20423;SDS011;10371;49.042;8.002;2023-12-22T02:03:04;3.17;;;1.50;;
20423;SDS011;10371;49.042;8.002;2023-12-22T02:04:04;5.30;;;1.53;;
20423;SDS011;10371;49.042;8.002;2023-12-22T02:05:05;3.83;;;1.80;;
20423;SDS011;10371;49.042;8.002;2023-12-22T02:06:09;5.17;;;1.87;;
20423;SDS011;10371;49.042;8.002;2023-12-22T02:07:10;3.10;;;1.47;;
20423;SDS011;10371;49.042;8.002;2023-12-22T02:08:11;4.83;;;1.97;;
20423;SDS011;10371;49.042;8.002;2023-12-22T02:09:12;2.73;;;1.80;;
20423;SDS011;10371;49.042;8.002;2023-12-22T02:10:12;3.17;;;1.60;;
20423;SDS011;10371;49.042;8.002;2023-12-22T02:11:15;4.07;;;1.50;;
20423;SDS011;10371;49.042;8.002;2023-12-22T02:12:16;4.53;;;2.07;;
20423;SDS011;10371;49.042;8.002;2023-12-22T02:13:16;4.27;;;1.80;;
20423;SDS011;10371;49.042;8.002;2023-12-22T02:14:16;3.43;;;1.50;;
20423;SDS011;10371;49.042;8.002;2023-12-22T02:15:17;3.70;;;1.70;;
20423;SDS011;10371;49.042;8.002;2023-12-22T02:16:22;3.77;;;1.63;;
20423;SDS011;10371;49.042;8.002;2023-12-22T02:18:43;2.83;;;1.67;;
20423;SDS011;10371;49.042;8.002;2023-12-22T02:19:47;3.93;;;1.63;;
20423;SDS011;10371;49.042;8.002;2023-12-22T02:20:48;5.00;;;2.03;;
20423;SDS011;10371;49.042;8.002;2023-12-22T02:23:05;4.47;;;1.93;;
20423;SDS011;10371;49.042;8.002;2023-12-22T02:24:05;2.90;;;1.57;;
20423;SDS011;10371;49.042;8.002;2023-12-22T02:25:06;3.70;;;1.83;;
20423;SDS011;10371;49.042;8.002;2023-12-22T02:26:10;3.63;;;1.80;;
20423;SDS011;10371;49.042;8.002;2023-12-22T02:28:33;3.80;;;1.93;;
20423;SDS011;10371;49.042;8.002;2023-12-22T02:29:36;3.53;;;1.50;;
20423;SDS011;10371;49.042;8.002;2023-12-22T02:30:53;2.90;;;1.60;;
20423;SDS011;10371;49.042;8.002;2023-12-22T02:32:02;5.23;;;1.60;;
20423;SDS011;10371;49.042;8.002;2023-12-22T02:33:07;3.03;;;1.87;;
20423;SDS011;10371;49.042;8.002;2023-12-22T02:34:09;3.37;;;1.77;;
20423;SDS011;10371;49.042;8.002;2023-12-22T02:35:14;3.70;;;1.80;;
20423;SDS011;10371;49.042;8.002;2023-12-22T02:36:17;4.20;;;1.83;;
20423;SDS011;10371;49.042;8.002;2023-12-22T02:37:17;2.80;;;1.43;;
20423;SDS011;10371;49.042;8.002;2023-12-22T02:38:19;5.57;;;1.80;;
20423;SDS011;10371;49.042;8.002;2023-12-22T02:39:20;4.93;;;1.80;;
20423;SDS011;10371;49.042;8.002;2023-12-22T02:40:20;4.67;;;2.33;;
20423;SDS011;10371;49.042;8.002;2023-12-22T02:41:22;4.67;;;2.03;;
20423;SDS011;10371;49.042;8.002;2023-12-22T02:42:22;4.23;;;1.70;;
20423;SDS011;10371;49.042;8.002;2023-12-22T02:43:29;4.67;;;1.87;;
20423;SDS011;10371;49.042;8.002;2023-12-22T02:44:30;4.47;;;1.90;;
20423;SDS011;10371;49.042;8.002;2023-12-22T02:45:31;3.87;;;2.20;;
20423;SDS011;10371;49.042;8.002;2023-12-22T02:46:32;5.60;;;1.90;;
20423;SDS011;10371;49.042;8.002;2023-12-22T02:47:32;3.63;;;1.90;;
20423;SDS011;10371;49.042;8.002;2023-12-22T02:48:33;3.17;;;1.97;;
20423;SDS011;10371;49.042;8.002;2023-12-22T02:49:33;7.20;;;2.60;;
20423;SDS011;10371;49.042;8.002;2023-12-22T02:50:33;5.73;;;2.50;;
20423;SDS011;10371;49.042;8.002;2023-12-22T02:51:34;5.07;;;2.20;;
20423;SDS011;10371;49.042;8.002;2023-12-22T02:52:34;4.77;;;2.30;;
20423;SDS011;10371;49.042;8.002;2023-12-22T02:53:35;6.03;;;2.50;;
20423;SDS011;10371;49.042;8.002;2023-12-22T02:54:35;3.87;;;1.97;;
20423;SDS011;10371;49.042;8.002;2023-12-22T02:55:35;5.30;;;2.83;;
20423;SDS011;10371;49.042;8.002;2023-12-22T02:56:36;5.57;;;2.30;;
20423;SDS011;10371;49.042;8.002;2023-12-22T02:57:36;4.27;;;2.50;;
20423;SDS011;10371;49.042;8.002;2023-12-22T02:58:36;5.10;;;2.43;;
20423;SDS011;10371;49.042;8.002;2023-12-22T02:59:36;5.53;;;3.10;;
20423;SDS011;10371;49.042;8.002;2023-12-22T03:00:37;4.30;;;2.07;;
20423;SDS011;10371;49.042;8.002;2023-12-22T03:01:37;7.20;;;2.87;;
20423;SDS011;10371;49.042;8.002;2023-12-22T03:02:37;5.40;;;2.17;;
20423;SDS011;10371;49.042;8.002;2023-12-22T03:03:37;7.63;;;2.77;;
20423;SDS011;10371;49.042;8.002;2023-12-22T03:04:38;5.27;;;2.67;;
20423;SDS011;10371;49.042;8.002;2023-12-22T03:05:38;7.43;;;2.70;;
20423;SDS011;10371;49.042;8.002;2023-12-22T03:06:38;4.77;;;2.50;;
20423;SDS011;10371;49.042;8.002;2023-12-22T03:07:39;4.20;;;2.50;;
20423;SDS011;10371;49.042;8.002;2023-12-22T03:08:39;7.30;;;3.20;;
20423;SDS011;10371;49.042;8.002;2023-12-22T03:09:40;6.13;;;2.60;;
20423;SDS011;10371;49.042;8.002;2023-12-22T03:10:40;5.97;;;2.40;;
20423;SDS011;10371;49.042;8.002;2023-12-22T03:11:40;3.73;;;1.70;;
20423;SDS011;10371;49.042;8.002;2023-12-22T03:12:41;4.17;;;1.80;;
20423;SDS011;10371;49.042;8.002;2023-12-22T03:13:41;5.63;;;1.77;;
20423;SDS011;10371;49.042;8.002;2023-12-22T03:14:41;5.00;;;2.37;;
20423;SDS011;10371;49.042;8.002;2023-12-22T03:15:42;5.13;;;1.93;;
20423;SDS011;10371;49.042;8.002;2023-12-22T03:16:42;4.20;;;1.80;;
20423;SDS011;10371;49.042;8.002;2023-12-22T03:17:42;6.40;;;2.30;;
20423;SDS011;10371;49.042;8.002;2023-12-22T03:18:42;3.10;;;1.70;;
20423;SDS011;10371;49.042;8.002;2023-12-22T03:19:43;7.13;;;2.27;;
20423;SDS011;10371;49.042;8.002;2023-12-22T03:20:43;4.37;;;2.00;;
20423;SDS011;10371;49.042;8.002;2023-12-22T03:21:43;4.57;;;2.50;;
20423;SDS011;10371;49.042;8.002;2023-12-22T03:22:43;4.50;;;2.23;;
20423;SDS011;10371;49.042;8.002;2023-12-22T03:23:44;6.60;;;2.13;;
20423;SDS011;10371;49.042;8.002;2023-12-22T03:24:44;4.20;;;2.00;;
20423;SDS011;10371;49.042;8.002;2023-12-22T03:25:44;4.57;;;1.77;;
20423;SDS011;10371;49.042;8.002;2023-12-22T03:26:45;5.73;;;1.70;;
20423;SDS011;10371;49.042;8.002;2023-12-22T03:27:45;5.07;;;1.90;;
20423;SDS011;10371;49.042;8.002;2023-12-22T03:28:46;5.00;;;2.13;;
20423;SDS011;10371;49.042;8.002;2023-12-22T03:29:46;5.73;;;1.90;;
20423;SDS011;10371;49.042;8.002;2023-12-22T03:30:46;5.57;;;2.00;;
20423;SDS011;10371;49.042;8.002;2023-12-22T03:31:46;5.23;;;2.13;;
20423;SDS011;10371;49.042;8.002;2023-12-22T03:32:47;4.93;;;2.13;;
20423;SDS011;10371;49.042;8.002;2023-12-22T03:33:47;4.67;;;1.73;;
20423;SDS011;10371;49.042;8.002;2023-12-22T03:34:47;4.37;;;1.80;;
20423;SDS011;10371;49.042;8.002;2023-12-22T03:35:48;3.70;;;1.60;;
20423;SDS011;10371;49.042;8.002;2023-12-22T03:36:48;6.07;;;2.13;;
20423;SDS011;10371;49.042;8.002;2023-12-22T03:37:48;4.67;;;2.10;;
20423;SDS011;10371;49.042;8.002;2023-12-22T03:38:49;5.57;;;1.97;;
20423;SDS011;10371;49.042;8.002;2023-12-22T03:39:49;5.23;;;1.90;;
20423;SDS011;10371;49.042;8.002;2023-12-22T03:40:49;4.97;;;2.47;;
20423;SDS011;10371;49.042;8.002;2023-12-22T03:41:49;6.00;;;2.20;;
20423;SDS011;10371;49.042;8.002;2023-12-22T03:42:50;4.37;;;1.70;;
20423;SDS011;10371;49.042;8.002;2023-12-22T03:43:50;5.47;;;1.80;;
20423;SDS011;10371;49.042;8.002;2023-12-22T03:44:50;5.20;;;1.93;;
20423;SDS011;10371;49.042;8.002;2023-12-22T03:45:50;5.37;;;1.93;;
20423;SDS011;10371;49.042;8.002;2023-12-22T03:46:51;5.53;;;1.80;;
20423;SDS011;10371;49.042;8.002;2023-12-22T03:47:51;4.33;;;1.90;;
20423;SDS011;10371;49.042;8.002;2023-12-22T03:48:51;4.23;;;1.53;;
20423;SDS011;10371;49.042;8.002;2023-12-22T03:49:52;5.07;;;1.97;;
20423;SDS011;10371;49.042;8.002;2023-12-22T03:50:52;3.53;;;1.70;;
20423;SDS011;10371;49.042;8.002;2023-12-22T03:51:52;4.97;;;1.70;;
20423;SDS011;10371;49.042;8.002;2023-12-22T03:52:52;4.27;;;1.70;;
20423;SDS011;10371;49.042;8.002;2023-12-22T03:53:53;3.90;;;2.17;;
20423;SDS011;10371;49.042;8.002;2023-12-22T03:54:53;3.33;;;1.60;;
20423;SDS011;10371;49.042;8.002;2023-12-22T03:55:54;3.60;;;1.90;;
20423;SDS011;10371;49.042;8.002;2023-12-22T03:56:54;3.93;;;1.57;;
20423;SDS011;10371;49.042;8.002;2023-12-22T03:57:55;3.67;;;1.97;;
20423;SDS011;10371;49.042;8.002;2023-12-22T03:58:55;4.00;;;1.80;;
20423;SDS011;10371;49.042;8.002;2023-12-22T03:59:55;3.70;;;1.80;;
20423;SDS011;10371;49.042;8.002;2023-12-22T04:00:56;3.13;;;1.73;;
20423;SDS011;10371;49.042;8.002;2023-12-22T04:01:56;3.93;;;1.80;;
20423;SDS011;10371;49.042;8.002;2023-12-22T04:02:58;5.53;;;2.00;;
20423;SDS011;10371;49.042;8.002;2023-12-22T04:03:58;4.83;;;1.93;;
20423;SDS011;10371;49.042;8.002;2023-12-22T04:04:58;3.33;;;1.77;;
20423;SDS011;10371;49.042;8.002;2023-12-22T04:06:01;6.07;;;2.07;;
20423;SDS011;10371;49.042;8.002;2023-12-22T04:07:02;4.47;;;1.70;;
20423;SDS011;10371;49.042;8.002;2023-12-22T04:08:03;4.83;;;1.97;;
20423;SDS011;10371;49.042;8.002;2023-12-22T04:09:03;5.53;;;2.07;;
20423;SDS011;10371;49.042;8.002;2023-12-22T04:10:04;3.10;;;1.50;;
20423;SDS011;10371;49.042;8.002;2023-12-22T04:11:04;4.93;;;1.80;;
20423;SDS011;10371;49.042;8.002;2023-12-22T04:12:05;4.23;;;1.63;;
20423;SDS011;10371;49.042;8.002;2023-12-22T04:13:05;6.33;;;2.87;;
20423;SDS011;10371;49.042;8.002;2023-12-22T04:14:05;4.23;;;1.80;;
20423;SDS011;10371;49.042;8.002;2023-12-22T04:15:06;5.17;;;1.67;;
20423;SDS011;10371;49.042;8.002;2023-12-22T04:16:07;5.67;;;2.00;;
20423;SDS011;10371;49.042;8.002;2023-12-22T04:17:07;4.83;;;1.90;;
20423;SDS011;10371;49.042;8.002;2023-12-22T04:18:07;5.63;;;2.20;;
20423;SDS011;10371;49.042;8.002;2023-12-22T04:19:08;4.93;;;2.00;;
20423;SDS011;10371;49.042;8.002;2023-12-22T04:20:08;6.87;;;2.30;;
20423;SDS011;10371;49.042;8.002;2023-12-22T04:21:08;5.57;;;2.20;;
20423;SDS011;10371;49.042;8.002;2023-12-22T04:22:09;6.07;;;2.40;;
20423;SDS011;10371;49.042;8.002;2023-12-22T04:23:09;4.17;;;1.90;;
20423;SDS011;10371;49.042;8.002;2023-12-22T04:24:09;5.57;;;2.00;;
20423;SDS011;10371;49.042;8.002;2023-12-22T04:25:10;4.70;;;1.80;;
20423;SDS011;10371;49.042;8.002;2023-12-22T04:26:10;4.33;;;2.00;;
20423;SDS011;10371;49.042;8.002;2023-12-22T04:27:11;4.87;;;2.37;;
20423;SDS011;10371;49.042;8.002;2023-12-22T04:28:11;5.77;;;2.50;;
20423;SDS011;10371;49.042;8.002;2023-12-22T04:29:11;6.20;;;2.50;;
20423;SDS011;10371;49.042;8.002;2023-12-22T04:30:11;7.97;;;2.50;;
20423;SDS011;10371;49.042;8.002;2023-12-22T04:31:12;5.30;;;2.33;;
20423;SDS011;10371;49.042;8.002;2023-12-22T04:32:12;6.03;;;2.20;;
20423;SDS011;10371;49.042;8.002;2023-12-22T04:33:12;6.20;;;2.80;;
20423;SDS011;10371;49.042;8.002;2023-12-22T04:34:13;6.77;;;2.53;;
20423;SDS011;10371;49.042;8.002;2023-12-22T04:35:14;5.93;;;2.50;;
20423;SDS011;10371;49.042;8.002;2023-12-22T04:36:14;6.37;;;2.90;;
20423;SDS011;10371;49.042;8.002;2023-12-22T04:37:15;7.73;;;2.67;;
20423;SDS011;10371;49.042;8.002;2023-12-22T04:38:15;7.83;;;2.47;;
20423;SDS011;10371;49.042;8.002;2023-12-22T04:39:15;6.27;;;2.77;;
20423;SDS011;10371;49.042;8.002;2023-12-22T04:40:16;5.10;;;2.40;;
20423;SDS011;10371;49.042;8.002;2023-12-22T04:41:16;7.67;;;2.70;;
20423;SDS011;10371;49.042;8.002;2023-12-22T04:42:16;8.93;;;2.73;;
20423;SDS011;10371;49.042;8.002;2023-12-22T04:43:17;7.93;;;2.60;;
20423;SDS011;10371;49.042;8.002;2023-12-22T04:44:17;8.10;;;2.50;;
20423;SDS011;10371;49.042;8.002;2023-12-22T04:45:17;5.30;;;2.30;;
20423;SDS011;10371;49.042;8.002;2023-12-22T04:46:17;7.83;;;2.53;;
20423;SDS011;10371;49.042;8.002;2023-12-22T04:47:18;6.57;;;2.40;;
20423;SDS011;10371;49.042;8.002;2023-12-22T04:48:18;8.77;;;2.83;;
20423;SDS011;10371;49.042;8.002;2023-12-22T04:49:18;8.40;;;2.70;;
20423;SDS011;10371;49.042;8.002;2023-12-22T04:50:18;11.90;;;3.10;;
20423;SDS011;10371;49.042;8.002;2023-12-22T04:51:19;10.33;;;3.17;;
20423;SDS011;10371;49.042;8.002;2023-12-22T04:52:19;6.80;;;2.60;;
20423;SDS011;10371;49.042;8.002;2023-12-22T04:53:19;7.07;;;2.80;;
20423;SDS011;10371;49.042;8.002;2023-12-22T04:54:20;10.47;;;3.23;;
20423;SDS011;10371;49.042;8.002;2023-12-22T04:55:21;7.77;;;3.00;;
20423;SDS011;10371;49.042;8.002;2023-12-22T04:56:22;5.73;;;2.40;;
20423;SDS011;10371;49.042;8.002;2023-12-22T04:57:22;8.77;;;3.10;;
20423;SDS011;10371;49.042;8.002;2023-12-22T04:58:22;5.90;;;2.47;;
20423;SDS011;10371;49.042;8.002;2023-12-22T04:59:24;6.83;;;2.50;;
20423;SDS011;10371;49.042;8.002;2023-12-22T05:00:24;9.87;;;2.70;;
20423;SDS011;10371;49.042;8.002;2023-12-22T05:01:25;5.97;;;2.23;;
20423;SDS011;10371;49.042;8.002;2023-12-22T05:02:25;10.13;;;2.90;;
20423;SDS011;10371;49.042;8.002;2023-12-22T05:03:25;6.70;;;2.50;;
20423;SDS011;10371;49.042;8.002;2023-12-22T05:04:26;7.93;;;2.80;;
20423;SDS011;10371;49.042;8.002;2023-12-22T05:05:26;8.73;;;3.13;;
20423;SDS011;10371;49.042;8.002;2023-12-22T05:06:26;9.23;;;3.00;;
20423;SDS011;10371;49.042;8.002;2023-12-22T05:07:26;5.27;;;2.60;;
20423;SDS011;10371;49.042;8.002;2023-12-22T05:08:27;10.00;;;2.60;;
20423;SDS011;10371;49.042;8.002;2023-12-22T05:09:27;6.97;;;2.40;;
20423;SDS011;10371;49.042;8.002;2023-12-22T05:10:28;6.57;;;2.77;;
20423;SDS011;10371;49.042;8.002;2023-12-22T05:11:28;7.20;;;2.60;;
20423;SDS011;10371;49.042;8.002;2023-12-22T05:12:29;7.10;;;2.67;;
20423;SDS011;10371;49.042;8.002;2023-12-22T05:13:29;7.53;;;2.20;;
20423;SDS011;10371;49.042;8.002;2023-12-22T05:14:29;4.07;;;2.27;;
20423;SDS011;10371;49.042;8.002;2023-12-22T05:15:30;7.37;;;2.83;;
20423;SDS011;10371;49.042;8.002;2023-12-22T05:16:30;8.00;;;2.60;;
20423;SDS011;10371;49.042;8.002;2023-12-22T05:17:31;8.30;;;2.90;;
20423;SDS011;10371;49.042;8.002;2023-12-22T05:18:32;8.20;;;3.00;;
20423;SDS011;10371;49.042;8.002;2023-12-22T05:19:33;7.53;;;2.57;;
20423;SDS011;10371;49.042;8.002;2023-12-22T05:20:33;8.87;;;2.73;;
20423;SDS011;10371;49.042;8.002;2023-12-22T05:21:33;7.83;;;2.70;;
20423;SDS011;10371;49.042;8.002;2023-12-22T05:22:34;8.07;;;2.73;;
20423;SDS011;10371;49.042;8.002;2023-12-22T05:23:34;8.80;;;2.60;;
20423;SDS011;10371;49.042;8.002;2023-12-22T05:24:34;9.83;;;3.17;;
20423;SDS011;10371;49.042;8.002;2023-12-22T05:25:34;7.60;;;2.70;;
20423;SDS011;10371;49.042;8.002;2023-12-22T05:26:35;8.80;;;2.70;;
20423;SDS011;10371;49.042;8.002;2023-12-22T05:27:35;6.43;;;2.47;;
20423;SDS011;10371;49.042;8.002;2023-12-22T05:28:35;8.23;;;2.47;;
20423;SDS011;10371;49.042;8.002;2023-12-22T05:29:35;5.57;;;2.20;;
20423;SDS011;10371;49.042;8.002;2023-12-22T05:30:36;6.80;;;2.67;;
20423;SDS011;10371;49.042;8.002;2023-12-22T05:31:36;7.00;;;3.10;;
20423;SDS011;10371;49.042;8.002;2023-12-22T05:32:36;10.53;;;4.00;;
20423;SDS011;10371;49.042;8.002;2023-12-22T05:33:36;8.50;;;3.10;;
20423;SDS011;10371;49.042;8.002;2023-12-22T05:34:37;8.57;;;3.50;;
20423;SDS011;10371;49.042;8.002;2023-12-22T05:35:37;7.57;;;2.90;;
20423;SDS011;10371;49.042;8.002;2023-12-22T05:36:37;7.70;;;3.07;;
20423;SDS011;10371;49.042;8.002;2023-12-22T05:37:37;8.93;;;4.37;;
20423;SDS011;10371;49.042;8.002;2023-12-22T05:38:38;8.93;;;3.30;;
20423;SDS011;10371;49.042;8.002;2023-12-22T05:39:39;6.90;;;2.80;;
20423;SDS011;10371;49.042;8.002;2023-12-22T05:40:39;8.97;;;3.83;;
20423;SDS011;10371;49.042;8.002;2023-12-22T05:41:39;7.00;;;2.83;;
20423;SDS011;10371;49.042;8.002;2023-12-22T05:42:40;8.43;;;2.93;;
20423;SDS011;10371;49.042;8.002;2023-12-22T05:43:40;4.83;;;2.60;;
20423;SDS011;10371;49.042;8.002;2023-12-22T05:44:40;7.30;;;2.97;;
20423;SDS011;10371;49.042;8.002;2023-12-22T05:45:40;6.23;;;2.67;;
20423;SDS011;10371;49.042;8.002;2023-12-22T05:46:41;6.83;;;2.50;;
20423;SDS011;10371;49.042;8.002;2023-12-22T05:47:41;6.80;;;2.63;;
20423;SDS011;10371;49.042;8.002;2023-12-22T05:48:41;5.80;;;3.00;;
20423;SDS011;10371;49.042;8.002;2023-12-22T05:49:43;6.80;;;2.40;;
20423;SDS011;10371;49.042;8.002;2023-12-22T05:50:43;5.93;;;2.37;;
20423;SDS011;10371;49.042;8.002;2023-12-22T05:51:44;8.77;;;2.73;;
20423;SDS011;10371;49.042;8.002;2023-12-22T05:52:44;7.10;;;2.30;;
20423;SDS011;10371;49.042;8.002;2023-12-22T05:53:45;7.87;;;2.93;;
20423;SDS011;10371;49.042;8.002;2023-12-22T05:54:45;5.10;;;2.10;;
20423;SDS011;10371;49.042;8.002;2023-12-22T05:55:46;6.73;;;2.50;;
20423;SDS011;10371;49.042;8.002;2023-12-22T05:56:46;4.83;;;2.10;;
20423;SDS011;10371;49.042;8.002;2023-12-22T05:57:46;5.90;;;2.40;;
20423;SDS011;10371;49.042;8.002;2023-12-22T05:58:47;6.50;;;2.53;;
20423;SDS011;10371;49.042;8.002;2023-12-22T05:59:49;9.23;;;2.67;;
20423;SDS011;10371;49.042;8.002;2023-12-22T06:00:50;6.37;;;2.30;;
20423;SDS011;10371;49.042;8.002;2023-12-22T06:01:53;6.00;;;2.63;;
20423;SDS011;10371;49.042;8.002;2023-12-22T06:02:53;6.73;;;2.60;;
20423;SDS011;10371;49.042;8.002;2023-12-22T06:03:54;5.47;;;2.20;;
20423;SDS011;10371;49.042;8.002;2023-12-22T06:04:54;9.10;;;2.47;;
20423;SDS011;10371;49.042;8.002;2023-12-22T06:05:55;7.33;;;3.07;;
20423;SDS011;10371;49.042;8.002;2023-12-22T06:06:56;7.37;;;2.60;;
20423;SDS011;10371;49.042;8.002;2023-12-22T06:07:56;10.40;;;3.27;;
20423;SDS011;10371;49.042;8.002;2023-12-22T06:08:57;7.13;;;2.80;;
20423;SDS011;10371;49.042;8.002;2023-12-22T06:09:57;6.73;;;2.77;;